This is the latest recevied weather packets stored in our database for station/object HASTNG-WX. If no packets are shown the sender has not sent any weather packets the latest 10 day(s).
| Time | Temp. | Humidity | Pressure | Rain* | Wind** | Luminosity | Snow |
|---|---|---|---|---|---|---|---|
| 1778137261 | 4.44° C | 70% | 983.3 hPa | 0 mm | - | - | - |
| 1778136333 | 4.44° C | 68% | 984.3 hPa | 0 mm | - | - | - |
| 1778135448 | 4.44° C | 68% | 984.3 hPa | 0 mm | - | - | - |
| 1778134532 | 5° C | 68% | 984.3 hPa | 0 mm | - | - | - |
| 1778133663 | 5° C | 68% | 984.3 hPa | 0 mm | - | - | - |
| 1778132732 | 5.56° C | 67% | 984.8 hPa | 0 mm | - | - | - |
| 1778131851 | 6.11° C | 67% | 984.8 hPa | 0 mm | - | - | - |
| 1778130932 | 5.56° C | 67% | 984.8 hPa | 0 mm | - | - | - |
| 1778130063 | 5.56° C | 68% | 984 hPa | 0 mm | - | - | - |
| 1778129131 | 5.56° C | 61% | 984.6 hPa | 0 mm | - | - | - |
| 1778128247 | 6.11° C | 61% | 984.6 hPa | 0 mm | - | - | - |
| 1778127331 | 6.67° C | 61% | 984.6 hPa | 0 mm | - | - | - |
| 1778126464 | 6.67° C | 61% | 984.6 hPa | 0 mm | - | - | - |
| 1778125532 | 6.67° C | 52% | 985.3 hPa | 0 mm | - | - | - |
| 1778124646 | 7.22° C | 60% | 984.3 hPa | 0 mm | - | - | - |
| 1778123731 | 7.78° C | 60% | 984.3 hPa | 0 mm | - | - | - |
| 1778122863 | 7.78° C | 60% | 984.3 hPa | 0 mm | - | - | - |
| 1778121930 | 7.22° C | 56% | 985 hPa | 0 mm | - | - | - |
| 1778121045 | 7.22° C | 56% | 984.8 hPa | 0 mm | - | - | - |
| 1778120130 | 6.67° C | 56% | 984.7 hPa | 0 mm | - | - | - |
| 1778119254 | 6.67° C | 56% | 984.7 hPa | 0 mm | - | - | - |
| 1778118330 | 7.22° C | 50% | 984.3 hPa | 0 mm | - | - | - |
| 1778117446 | 7.78° C | 50% | 984.3 hPa | 0 mm | - | - | - |
| 1778116530 | 7.78° C | 50% | 984.3 hPa | 0 mm | - | - | - |
| 1778115655 | 7.78° C | 50% | 984.3 hPa | 0 mm | - | - | - |
* Rain latest hour (hover to see other rain measurements)
** Current wind speed in m/s (hover to see current wind gust speed)